Time;durP1;ratioP1;P1;durP2;ratioP2;P2;SDS_P1;SDS_P2;PMS_P1;PMS_P2;Temp;Humidity;BMP_temperature;BMP_pressure;BME280_temperature;BME280_humidity;BME280_pressure;Samples;Min_cycle;Max_cycle;Signal;HPM_P1;HPM_P2
2023/04/13 00:00:14;;;;;;;6.05;1.15;;;;;;;;;;4988805;28;20045;-66
2023/04/13 00:02:40;;;;;;;5.60;1.10;;;;;;;;;;4990155;28;20030;-67
2023/04/13 00:05:08;;;;;;;3.55;0.90;;;;;;;;;;4988618;28;20023;-66
2023/04/13 00:07:37;;;;;;;5.68;0.80;;;;;;;;;;4990934;28;20069;-66
2023/04/13 00:10:07;;;;;;;4.63;0.80;;;;;;;;;;4993535;28;20026;-66
2023/04/13 00:12:33;;;;;;;4.93;0.90;;;;;;;;;;4993810;28;20081;-66
2023/04/13 00:14:59;;;;;;;4.93;0.80;;;;;;;;;;4993075;28;20036;-66
2023/04/13 00:17:26;;;;;;;4.63;0.80;;;;;;;;;;4993555;28;20025;-67
2023/04/13 00:19:52;;;;;;;4.15;0.65;;;;;;;;;;4993717;28;20494;-67
2023/04/13 00:22:18;;;;;;;6.53;0.70;;;;;;;;;;4993289;28;20058;-68
2023/04/13 00:24:44;;;;;;;5.32;1.00;;;;;;;;;;4993279;28;20494;-68
2023/04/13 00:27:09;;;;;;;4.43;0.70;;;;;;;;;;4993430;28;20026;-66
2023/04/13 00:29:35;;;;;;;5.68;1.02;;;;;;;;;;4992965;28;20033;-67
2023/04/13 00:32:01;;;;;;;4.55;0.93;;;;;;;;;;4993206;28;20541;-67
2023/04/13 00:34:27;;;;;;;4.03;0.93;;;;;;;;;;4992772;28;20030;-67
2023/04/13 00:36:53;;;;;;;2.85;0.70;;;;;;;;;;4993153;28;20022;-66
2023/04/13 00:39:21;;;;;;;4.82;0.82;;;;;;;;;;4993068;28;20566;-66
2023/04/13 00:41:49;;;;;;;2.35;0.80;;;;;;;;;;4991896;28;20078;-68
2023/04/13 00:44:14;;;;;;;3.22;0.65;;;;;;;;;;4992615;28;20026;-66
2023/04/13 00:46:41;;;;;;;4.22;0.90;;;;;;;;;;4993019;28;20022;-67
2023/04/13 00:49:07;;;;;;;3.90;0.95;;;;;;;;;;4992515;28;20108;-67
2023/04/13 00:51:33;;;;;;;4.80;0.82;;;;;;;;;;4992830;28;20034;-68
2023/04/13 00:53:59;;;;;;;2.85;0.88;;;;;;;;;;4993080;28;20065;-67
2023/04/13 00:56:26;;;;;;;4.00;0.85;;;;;;;;;;4999930;28;20061;-66
2023/04/13 00:58:52;;;;;;;7.07;1.00;;;;;;;;;;4995143;28;20030;-66
2023/04/13 01:01:18;;;;;;;7.95;1.27;;;;;;;;;;4993276;28;20560;-66
2023/04/13 01:03:44;;;;;;;5.53;1.05;;;;;;;;;;4992825;28;20026;-67
2023/04/13 01:06:20;;;;;;;6.75;1.20;;;;;;;;;;4992681;28;20487;-67
2023/04/13 01:09:14;;;;;;;5.57;1.10;;;;;;;;;;4992664;28;20080;-66
2023/04/13 01:11:51;;;;;;;5.25;1.08;;;;;;;;;;4990362;28;20371;-68
2023/04/13 01:14:35;;;;;;;5.43;1.42;;;;;;;;;;4992123;28;20101;-66
2023/04/13 01:17:06;;;;;;;8.63;1.17;;;;;;;;;;4992473;28;20022;-67
2023/04/13 01:19:50;;;;;;;;;;;;;;;;;;4992264;28;20637;-67
2023/04/13 01:22:20;;;;;;;5.88;1.20;;;;;;;;;;4992376;28;19981;-67
2023/04/13 01:25:05;;;;;;;6.03;1.17;;;;;;;;;;4992013;28;20038;-67
2023/04/13 01:27:42;;;;;;;6.45;1.10;;;;;;;;;;4992336;28;20057;-67
2023/04/13 01:30:09;;;;;;;6.22;0.90;;;;;;;;;;5007025;28;20042;-67
2023/04/13 01:32:37;;;;;;;6.68;1.15;;;;;;;;;;4990901;28;20027;-66
2023/04/13 01:35:05;;;;;;;5.25;1.05;;;;;;;;;;4991842;28;20026;-66
2023/04/13 01:37:32;;;;;;;6.10;1.20;;;;;;;;;;4992209;28;20076;-66
2023/04/13 01:39:57;;;;;;;7.15;1.30;;;;;;;;;;4991717;28;20074;-68
2023/04/13 01:42:23;;;;;;;5.65;1.30;;;;;;;;;;4991898;28;20061;-67
2023/04/13 01:44:49;;;;;;;3.92;1.00;;;;;;;;;;4990260;28;20046;-67
2023/04/13 01:47:19;;;;;;;5.65;1.27;;;;;;;;;;4992003;28;20061;-67
2023/04/13 01:50:12;;;;;;;7.50;1.27;;;;;;;;;;4990563;28;20049;-68
2023/04/13 01:52:40;;;;;;;4.95;1.05;;;;;;;;;;4991631;28;20034;-67
2023/04/13 01:55:06;;;;;;;2.28;0.80;;;;;;;;;;4991440;28;20023;-67
2023/04/13 01:57:34;;;;;;;3.78;0.95;;;;;;;;;;4991647;28;20026;-67
2023/04/13 02:00:12;;;;;;;6.47;1.30;;;;;;;;;;4991181;28;20113;-66
2023/04/13 02:02:37;;;;;;;6.57;1.00;;;;;;;;;;4991736;28;20054;-67
2023/04/13 02:05:03;;;;;;;6.97;1.38;;;;;;;;;;4989900;28;20065;-66
2023/04/13 02:07:28;;;;;;;6.35;1.25;;;;;;;;;;4991608;28;20022;-67
2023/04/13 02:09:53;;;;;;;6.15;1.67;;;;;;;;;;4991367;28;20057;-67
2023/04/13 02:12:19;;;;;;;6.20;1.10;;;;;;;;;;4991635;28;20026;-67
2023/04/13 02:14:45;;;;;;;5.00;1.10;;;;;;;;;;4991043;28;20030;-66
2023/04/13 02:17:10;;;;;;;2.75;0.77;;;;;;;;;;4991091;28;20491;-66
2023/04/13 02:19:35;;;;;;;6.50;0.90;;;;;;;;;;4991000;28;20092;-67
2023/04/13 02:22:01;;;;;;;4.25;1.00;;;;;;;;;;4991265;28;20579;-67
2023/04/13 02:24:26;;;;;;;5.18;1.10;;;;;;;;;;4991044;28;20500;-67
2023/04/13 02:26:52;;;;;;;5.45;0.70;;;;;;;;;;4991083;28;20487;-66
2023/04/13 02:29:17;;;;;;;4.20;0.98;;;;;;;;;;4991157;28;20114;-66
2023/04/13 02:31:44;;;;;;;4.28;0.80;;;;;;;;;;4990073;28;20057;-67
2023/04/13 02:34:10;;;;;;;8.90;1.05;;;;;;;;;;4990973;28;20054;-67
2023/04/13 02:36:35;;;;;;;6.85;1.00;;;;;;;;;;4990593;28;20057;-67
2023/04/13 02:39:01;;;;;;;2.90;0.80;;;;;;;;;;4990874;28;20482;-67
2023/04/13 02:41:28;;;;;;;4.05;0.90;;;;;;;;;;4990778;28;20032;-66
2023/04/13 02:43:53;;;;;;;4.43;0.88;;;;;;;;;;4990957;28;20026;-67
2023/04/13 02:46:19;;;;;;;6.03;0.90;;;;;;;;;;4990419;28;20049;-67
2023/04/13 02:48:44;;;;;;;5.82;1.00;;;;;;;;;;4989662;28;20121;-67
2023/04/13 02:51:11;;;;;;;5.88;1.00;;;;;;;;;;4990570;28;20034;-66
2023/04/13 02:53:36;;;;;;;6.28;1.20;;;;;;;;;;4990838;28;20029;-68
2023/04/13 02:56:01;;;;;;;4.70;0.90;;;;;;;;;;4990274;28;20026;-67
2023/04/13 02:58:31;;;;;;;3.38;0.90;;;;;;;;;;4989389;28;20022;-67
2023/04/13 03:00:57;;;;;;;2.75;0.93;;;;;;;;;;4990597;28;20045;-67
2023/04/13 03:03:23;;;;;;;5.97;1.20;;;;;;;;;;4990643;28;20653;-68
2023/04/13 03:05:49;;;;;;;6.22;1.20;;;;;;;;;;4990207;28;20065;-67
2023/04/13 03:08:16;;;;;;;4.70;1.10;;;;;;;;;;4990778;28;20133;-67
2023/04/13 03:10:45;;;;;;;5.88;0.90;;;;;;;;;;4988918;28;20034;-66
2023/04/13 03:13:10;;;;;;;7.00;1.10;;;;;;;;;;4990486;28;20030;-66
2023/04/13 03:15:36;;;;;;;7.43;1.00;;;;;;;;;;4990292;28;20029;-66
2023/04/13 03:18:02;;;;;;;9.90;1.23;;;;;;;;;;4990412;28;20023;-66
2023/04/13 03:20:28;;;;;;;5.32;0.85;;;;;;;;;;4990331;28;20037;-66
2023/04/13 03:22:54;;;;;;;3.53;0.98;;;;;;;;;;4989134;28;20030;-66
2023/04/13 03:25:20;;;;;;;7.82;1.10;;;;;;;;;;4990084;28;20034;-66
2023/04/13 03:27:45;;;;;;;8.75;0.88;;;;;;;;;;4990294;28;20037;-67
2023/04/13 03:30:11;;;;;;;5.38;0.95;;;;;;;;;;4990306;28;20034;-68
2023/04/13 03:32:37;;;;;;;6.10;1.00;;;;;;;;;;4990481;28;20098;-67
2023/04/13 03:35:02;;;;;;;6.18;1.10;;;;;;;;;;4990359;28;20495;-68
2023/04/13 03:37:31;;;;;;;5.53;1.08;;;;;;;;;;4990049;28;20030;-66
2023/04/13 03:39:57;;;;;;;4.50;1.10;;;;;;;;;;4990274;28;20643;-66
2023/04/13 03:42:22;;;;;;;4.80;1.20;;;;;;;;;;4992203;28;20039;-66
2023/04/13 03:44:48;;;;;;;6.45;1.00;;;;;;;;;;4993940;28;20053;-67
2023/04/13 03:47:13;;;;;;;5.20;0.90;;;;;;;;;;4993750;28;20050;-67
2023/04/13 03:49:39;;;;;;;6.07;1.15;;;;;;;;;;4994304;28;20049;-66
2023/04/13 03:52:04;;;;;;;2.53;0.75;;;;;;;;;;4992533;28;20069;-66
2023/04/13 03:54:30;;;;;;;5.20;0.90;;;;;;;;;;4994087;28;20034;-66
2023/04/13 03:56:57;;;;;;;3.38;0.77;;;;;;;;;;4993654;28;20033;-66
2023/04/13 03:59:22;;;;;;;10.60;1.85;;;;;;;;;;4993870;28;20030;-66
2023/04/13 04:01:48;;;;;;;5.03;0.88;;;;;;;;;;4993512;28;20031;-66
2023/04/13 04:04:13;;;;;;;4.80;0.90;;;;;;;;;;4993831;28;20026;-67
2023/04/13 04:06:39;;;;;;;4.28;0.80;;;;;;;;;;4993237;28;20382;-67
2023/04/13 04:09:04;;;;;;;4.75;1.02;;;;;;;;;;4993781;28;20482;-66
2023/04/13 04:11:29;;;;;;;3.28;0.80;;;;;;;;;;4993488;28;20026;-67
2023/04/13 04:13:55;;;;;;;2.88;0.70;;;;;;;;;;4992483;28;20022;-66
2023/04/13 04:16:20;;;;;;;3.95;0.75;;;;;;;;;;4993195;28;20046;-66
2023/04/13 04:18:45;;;;;;;5.78;1.20;;;;;;;;;;4993295;28;20641;-66
2023/04/13 04:21:12;;;;;;;2.90;0.70;;;;;;;;;;4993162;28;20033;-66
2023/04/13 04:23:38;;;;;;;3.28;0.70;;;;;;;;;;4993543;28;20065;-65
2023/04/13 04:26:04;;;;;;;3.58;0.68;;;;;;;;;;4993042;28;20569;-66
2023/04/13 04:28:30;;;;;;;4.50;1.25;;;;;;;;;;4993537;28;20030;-66
2023/04/13 04:30:59;;;;;;;2.63;0.75;;;;;;;;;;4993304;28;20023;-66
2023/04/13 04:33:25;;;;;;;4.60;0.90;;;;;;;;;;4993359;28;20060;-67
2023/04/13 04:35:51;;;;;;;3.67;0.75;;;;;;;;;;4992970;28;20074;-66
2023/04/13 04:38:21;;;;;;;7.38;0.85;;;;;;;;;;4992965;28;20061;-67
2023/04/13 04:40:48;;;;;;;4.95;0.90;;;;;;;;;;4995612;28;20030;-66
2023/04/13 04:43:13;;;;;;;2.45;0.70;;;;;;;;;;4998795;28;20022;-66
2023/04/13 04:45:44;;;;;;;3.75;0.68;;;;;;;;;;4993340;28;20173;-66
2023/04/13 04:48:10;;;;;;;4.57;0.68;;;;;;;;;;4993632;28;20027;-66
2023/04/13 04:50:36;;;;;;;2.15;0.50;;;;;;;;;;4993655;28;20030;-66
2023/04/13 04:53:05;;;;;;;3.00;0.63;;;;;;;;;;4992039;28;20034;-66
2023/04/13 04:55:30;;;;;;;5.15;0.90;;;;;;;;;;4992879;28;20030;-66
2023/04/13 04:57:55;;;;;;;5.03;1.10;;;;;;;;;;4992442;28;20359;-66
2023/04/13 05:00:21;;;;;;;4.30;0.70;;;;;;;;;;4992797;28;20041;-67
2023/04/13 05:02:49;;;;;;;3.53;0.80;;;;;;;;;;4992763;28;20454;-66
2023/04/13 05:05:14;;;;;;;5.75;0.70;;;;;;;;;;4992815;28;20081;-66
2023/04/13 05:07:40;;;;;;;2.88;0.70;;;;;;;;;;4992120;28;20027;-66
2023/04/13 05:10:07;;;;;;;2.90;0.47;;;;;;;;;;4992657;28;20018;-69
2023/04/13 05:12:33;;;;;;;2.78;0.45;;;;;;;;;;4992408;28;20103;-66
2023/04/13 05:14:58;;;;;;;3.78;0.50;;;;;;;;;;4992645;28;20075;-67
2023/04/13 05:17:24;;;;;;;4.88;0.60;;;;;;;;;;4990710;28;20050;-67
2023/04/13 05:19:50;;;;;;;1.80;0.40;;;;;;;;;;4990994;28;20486;-66
2023/04/13 05:22:16;;;;;;;1.65;0.60;;;;;;;;;;4992180;28;20039;-66
2023/04/13 05:24:41;;;;;;;3.80;0.75;;;;;;;;;;4992396;28;20483;-66
2023/04/13 05:27:08;;;;;;;3.28;0.50;;;;;;;;;;4992053;28;20034;-66
2023/04/13 05:29:34;;;;;;;3.33;1.20;;;;;;;;;;4992218;28;20098;-66
2023/04/13 05:32:01;;;;;;;3.83;0.77;;;;;;;;;;4990389;28;20420;-66
2023/04/13 05:34:26;;;;;;;4.95;0.80;;;;;;;;;;4991956;28;20544;-66
2023/04/13 05:36:56;;;;;;;2.70;0.70;;;;;;;;;;4991513;28;20026;-66
2023/04/13 05:39:23;;;;;;;3.80;1.10;;;;;;;;;;4991855;28;20030;-66
2023/04/13 05:41:48;;;;;;;4.43;0.52;;;;;;;;;;4991904;28;20026;-66
2023/04/13 05:44:14;;;;;;;2.15;0.45;;;;;;;;;;4991953;28;20471;-67
2023/04/13 05:46:39;;;;;;;4.63;0.93;;;;;;;;;;4991854;28;20029;-66
2023/04/13 05:49:05;;;;;;;2.45;0.50;;;;;;;;;;4991652;28;20637;-67
2023/04/13 05:51:31;;;;;;;3.45;0.90;;;;;;;;;;4991667;28;20037;-66
2023/04/13 05:53:57;;;;;;;3.63;0.80;;;;;;;;;;4991444;28;20026;-66
2023/04/13 05:56:24;;;;;;;2.22;0.50;;;;;;;;;;4991627;28;20501;-66
2023/04/13 05:58:50;;;;;;;4.78;0.90;;;;;;;;;;4991510;28;20030;-66
2023/04/13 06:01:17;;;;;;;2.47;0.70;;;;;;;;;;4990581;28;20030;-66
2023/04/13 06:03:43;;;;;;;3.22;0.60;;;;;;;;;;4991261;28;20406;-66
2023/04/13 06:06:09;;;;;;;4.05;0.80;;;;;;;;;;4990288;28;20037;-66
2023/04/13 06:08:34;;;;;;;6.55;0.80;;;;;;;;;;4991202;28;20023;-66
2023/04/13 06:11:00;;;;;;;3.65;0.70;;;;;;;;;;4991473;28;20034;-66
2023/04/13 06:13:26;;;;;;;1.85;0.70;;;;;;;;;;4991224;28;20030;-66
2023/04/13 06:15:51;;;;;;;3.28;0.82;;;;;;;;;;4991575;28;20022;-68
2023/04/13 06:18:17;;;;;;;3.00;0.60;;;;;;;;;;4990844;28;20037;-66
2023/04/13 06:20:43;;;;;;;2.83;0.80;;;;;;;;;;4991167;28;20061;-67
2023/04/13 06:23:08;;;;;;;1.95;0.50;;;;;;;;;;4991081;28;20022;-66
2023/04/13 06:25:34;;;;;;;3.42;0.65;;;;;;;;;;4991367;28;20089;-66
2023/04/13 06:28:01;;;;;;;2.83;0.65;;;;;;;;;;4989386;28;20022;-66
2023/04/13 06:30:27;;;;;;;2.67;0.50;;;;;;;;;;5006009;28;20024;-65
2023/04/13 06:32:52;;;;;;;3.80;0.73;;;;;;;;;;4990883;28;20120;-67
2023/04/13 06:35:17;;;;;;;4.78;0.80;;;;;;;;;;4991175;28;20030;-68
2023/04/13 06:37:43;;;;;;;8.45;1.10;;;;;;;;;;4993304;28;20064;-67
2023/04/13 06:40:13;;;;;;;2.55;0.63;;;;;;;;;;4991783;28;20126;-66
2023/04/13 06:42:40;;;;;;;5.10;0.73;;;;;;;;;;4991296;28;20067;-66
2023/04/13 06:45:10;;;;;;;1.45;0.55;;;;;;;;;;4990937;28;20051;-66
2023/04/13 06:47:36;;;;;;;4.97;0.70;;;;;;;;;;4990712;28;20043;-66
2023/04/13 06:50:05;;;;;;;3.17;0.60;;;;;;;;;;4991026;28;20102;-67
2023/04/13 06:52:34;;;;;;;2.75;0.52;;;;;;;;;;4990654;28;20041;-67
2023/04/13 06:55:00;;;;;;;3.88;0.55;;;;;;;;;;4990863;28;20448;-66
2023/04/13 06:57:26;;;;;;;3.17;0.70;;;;;;;;;;4990493;28;20057;-66
2023/04/13 06:59:51;;;;;;;2.88;0.60;;;;;;;;;;4990485;28;20121;-67
2023/04/13 07:02:17;;;;;;;3.45;0.70;;;;;;;;;;4990447;28;20497;-68
2023/04/13 07:04:43;;;;;;;2.63;0.50;;;;;;;;;;4990468;28;20483;-67
2023/04/13 07:07:08;;;;;;;2.95;0.70;;;;;;;;;;4990363;28;20479;-67
2023/04/13 07:09:34;;;;;;;2.40;0.65;;;;;;;;;;4990431;28;20031;-67
2023/04/13 07:12:03;;;;;;;3.85;0.52;;;;;;;;;;4990670;28;20019;-67
2023/04/13 07:14:38;;;;;;;5.97;0.70;;;;;;;;;;4990116;28;20477;-67
2023/04/13 07:17:04;;;;;;;3.95;0.65;;;;;;;;;;4992248;28;20077;-68
2023/04/13 07:19:31;;;;;;;4.00;0.70;;;;;;;;;;4994410;28;20027;-67
2023/04/13 07:21:58;;;;;;;4.65;0.77;;;;;;;;;;4994481;28;20033;-68
2023/04/13 07:24:26;;;;;;;3.05;0.50;;;;;;;;;;4994530;28;20027;-67
2023/04/13 07:26:52;;;;;;;7.28;0.90;;;;;;;;;;4994478;28;20018;-67
2023/04/13 07:29:17;;;;;;;2.10;0.45;;;;;;;;;;4994257;28;20242;-67
2023/04/13 07:31:43;;;;;;;4.32;0.70;;;;;;;;;;4994436;28;20538;-67
2023/04/13 07:34:08;;;;;;;3.50;0.60;;;;;;;;;;4994135;28;20031;-66
2023/04/13 07:36:34;;;;;;;3.45;0.80;;;;;;;;;;4994483;28;20026;-67
2023/04/13 07:39:00;;;;;;;4.50;0.77;;;;;;;;;;4993875;28;20027;-67
2023/04/13 07:41:25;;;;;;;3.60;0.70;;;;;;;;;;4994384;28;20030;-66
2023/04/13 07:43:51;;;;;;;1.83;0.60;;;;;;;;;;4994006;28;20386;-67
2023/04/13 07:46:16;;;;;;;2.47;0.60;;;;;;;;;;4994013;28;20105;-67
2023/04/13 07:48:42;;;;;;;5.25;0.80;;;;;;;;;;4993796;28;20387;-66
2023/04/13 07:51:17;;;;;;;5.15;0.57;;;;;;;;;;4992667;28;20064;-66
2023/04/13 07:53:43;;;;;;;3.67;0.60;;;;;;;;;;4993895;28;20084;-66
2023/04/13 07:56:08;;;;;;;2.03;0.65;;;;;;;;;;4993946;28;20030;-67
2023/04/13 07:58:34;;;;;;;2.53;0.63;;;;;;;;;;4993585;28;20116;-67
2023/04/13 08:00:59;;;;;;;4.45;1.00;;;;;;;;;;4994078;28;20474;-66
2023/04/13 08:03:25;;;;;;;4.00;0.60;;;;;;;;;;4992491;28;20032;-67
2023/04/13 08:05:50;;;;;;;3.83;0.70;;;;;;;;;;4993934;28;20721;-67
2023/04/13 08:08:16;;;;;;;1.35;0.50;;;;;;;;;;4993430;28;20383;-66
2023/04/13 08:10:42;;;;;;;1.50;0.50;;;;;;;;;;4993495;28;20026;-67
2023/04/13 08:13:07;;;;;;;4.10;0.60;;;;;;;;;;4993474;28;20225;-66
2023/04/13 08:15:33;;;;;;;3.63;0.60;;;;;;;;;;4992271;28;20125;-66
2023/04/13 08:17:58;;;;;;;4.22;0.70;;;;;;;;;;4993333;28;20042;-66
2023/04/13 08:20:24;;;;;;;3.50;0.52;;;;;;;;;;4993205;28;20482;-67
2023/04/13 08:22:49;;;;;;;3.42;0.63;;;;;;;;;;4993962;28;20106;-66
2023/04/13 08:25:16;;;;;;;4.90;0.77;;;;;;;;;;4995085;28;20037;-66
2023/04/13 08:27:41;;;;;;;1.88;0.50;;;;;;;;;;4993280;28;20031;-67
2023/04/13 08:30:09;;;;;;;3.17;0.50;;;;;;;;;;4993322;28;20037;-66
2023/04/13 08:32:34;;;;;;;6.68;0.57;;;;;;;;;;4993953;28;20109;-65
2023/04/13 08:35:05;;;;;;;2.70;0.63;;;;;;;;;;4993030;28;20161;-66
2023/04/13 08:37:32;;;;;;;3.70;0.60;;;;;;;;;;4993021;28;20525;-66
2023/04/13 08:39:59;;;;;;;4.20;0.52;;;;;;;;;;4991654;28;20040;-66
2023/04/13 08:42:26;;;;;;;2.90;0.52;;;;;;;;;;4993086;28;20041;-66
2023/04/13 08:44:58;;;;;;;4.72;0.57;;;;;;;;;;4991372;28;20057;-66
2023/04/13 08:47:26;;;;;;;3.88;0.60;;;;;;;;;;4993020;28;20034;-66
2023/04/13 08:49:56;;;;;;;3.10;0.60;;;;;;;;;;4992883;28;20070;-66
2023/04/13 08:52:22;;;;;;;1.98;0.60;;;;;;;;;;4992814;28;20524;-67
2023/04/13 08:54:48;;;;;;;4.22;0.80;;;;;;;;;;5007834;28;20482;-66
2023/04/13 08:57:15;;;;;;;2.55;0.47;;;;;;;;;;4992891;28;20074;-66
2023/04/13 08:59:42;;;;;;;2.30;0.60;;;;;;;;;;4992439;28;20027;-66
2023/04/13 09:02:08;;;;;;;1.33;0.30;;;;;;;;;;4992681;28;20064;-66
2023/04/13 09:04:41;;;;;;;3.35;0.60;;;;;;;;;;4992531;28;20026;-67
2023/04/13 09:07:09;;;;;;;3.70;0.40;;;;;;;;;;4992452;28;20034;-66
2023/04/13 09:09:37;;;;;;;1.98;0.40;;;;;;;;;;4992421;28;20036;-65
2023/04/13 09:12:03;;;;;;;4.20;0.73;;;;;;;;;;4992625;28;20022;-67
2023/04/13 09:14:30;;;;;;;2.85;0.60;;;;;;;;;;4992478;28;20537;-65
2023/04/13 09:16:56;;;;;;;1.73;0.40;;;;;;;;;;4992537;28;20022;-67
2023/04/13 09:19:29;;;;;;;4.53;0.60;;;;;;;;;;4991843;28;20041;-67
2023/04/13 09:21:54;;;;;;;1.88;0.50;;;;;;;;;;4992102;28;20065;-67
2023/04/13 09:24:20;;;;;;;2.70;0.93;;;;;;;;;;4991897;28;20026;-67
2023/04/13 09:26:47;;;;;;;2.58;0.60;;;;;;;;;;4992511;28;20027;-67
2023/04/13 09:29:16;;;;;;;0.70;0.22;;;;;;;;;;4992082;28;20053;-66
2023/04/13 09:31:43;;;;;;;0.47;0.28;;;;;;;;;;4992296;28;20041;-66
2023/04/13 09:34:09;;;;;;;1.23;0.30;;;;;;;;;;4992190;28;20406;-66
2023/04/13 09:36:36;;;;;;;3.05;0.40;;;;;;;;;;4992003;28;20029;-68
2023/04/13 09:39:02;;;;;;;1.75;0.30;;;;;;;;;;4991502;28;20050;-66
2023/04/13 09:41:35;;;;;;;1.05;0.30;;;;;;;;;;4991975;28;20045;-66
2023/04/13 09:44:26;;;;;;;0.20;0.10;;;;;;;;;;4991977;28;20022;-68
2023/04/13 09:47:01;;;;;;;;;;;;;;;;;;4992400;28;20033;-68
2023/04/13 09:49:37;;;;;;;0.90;0.30;;;;;;;;;;4990479;28;19917;-66
2023/04/13 09:52:03;;;;;;;1.13;0.30;;;;;;;;;;4991918;28;20037;-67
2023/04/13 09:54:28;;;;;;;1.95;0.40;;;;;;;;;;4991777;28;20030;-66
2023/04/13 09:56:55;;;;;;;1.42;0.40;;;;;;;;;;4991495;28;20081;-67
2023/04/13 09:59:22;;;;;;;0.82;0.35;;;;;;;;;;4991394;28;20026;-67
2023/04/13 10:01:48;;;;;;;0.70;0.35;;;;;;;;;;4991653;28;20022;-67
2023/04/13 10:04:14;;;;;;;1.67;0.40;;;;;;;;;;4991453;28;20040;-66
2023/04/13 10:06:42;;;;;;;1.13;0.40;;;;;;;;;;4991244;28;20033;-66
2023/04/13 10:09:08;;;;;;;2.08;0.50;;;;;;;;;;4990202;28;20034;-66
2023/04/13 10:11:40;;;;;;;2.28;0.50;;;;;;;;;;4991321;28;20085;-67
2023/04/13 10:14:18;;;;;;;1.90;0.47;;;;;;;;;;4991464;28;20038;-67
2023/04/13 10:17:14;;;;;;;1.70;0.40;;;;;;;;;;4991325;28;20030;-67
2023/04/13 10:19:46;;;;;;;0.82;0.30;;;;;;;;;;4991207;28;20032;-67
2023/04/13 10:22:17;;;;;;;1.33;0.38;;;;;;;;;;4990387;28;20030;-66
2023/04/13 10:24:52;;;;;;;3.05;0.50;;;;;;;;;;4991385;28;20026;-68
2023/04/13 10:27:19;;;;;;;0.73;0.40;;;;;;;;;;4991313;28;20034;-67
2023/04/13 10:29:46;;;;;;;0.40;0.30;;;;;;;;;;4991016;28;20037;-67
2023/04/13 10:32:27;;;;;;;1.92;0.47;;;;;;;;;;4989554;28;20041;-67
2023/04/13 10:34:53;;;;;;;2.70;0.68;;;;;;;;;;4991078;28;20109;-67
2023/04/13 10:37:27;;;;;;;2.88;0.40;;;;;;;;;;4990779;28;20114;-67
2023/04/13 10:40:07;;;;;;;2.58;0.35;;;;;;;;;;4990738;28;20143;-67
2023/04/13 10:42:41;;;;;;;1.85;0.35;;;;;;;;;;4991007;28;20514;-67
2023/04/13 10:45:17;;;;;;;0.93;0.57;;;;;;;;;;4990716;28;20034;-68
2023/04/13 10:47:42;;;;;;;1.08;0.30;;;;;;;;;;4990828;28;20027;-65
2023/04/13 10:50:28;;;;;;;1.02;0.40;;;;;;;;;;4990507;28;20428;-67
2023/04/13 10:53:05;;;;;;;1.15;0.50;;;;;;;;;;4989650;28;20042;-66
2023/04/13 10:55:34;;;;;;;1.88;0.60;;;;;;;;;;4990664;28;20030;-67
2023/04/13 10:58:01;;;;;;;1.77;0.50;;;;;;;;;;4990858;28;20040;-67
2023/04/13 11:00:29;;;;;;;0.60;0.22;;;;;;;;;;5005371;28;20413;-66
2023/04/13 11:02:58;;;;;;;0.77;0.20;;;;;;;;;;4990519;28;20026;-67
2023/04/13 11:05:28;;;;;;;1.58;0.40;;;;;;;;;;4990397;28;20022;-66
2023/04/13 11:07:53;;;;;;;1.35;0.40;;;;;;;;;;4990683;28;20426;-66
2023/04/13 11:10:27;;;;;;;1.02;0.30;;;;;;;;;;4990316;28;20435;-66
2023/04/13 11:12:54;;;;;;;1.85;0.40;;;;;;;;;;4990788;28;20041;-67
2023/04/13 11:15:21;;;;;;;1.77;0.43;;;;;;;;;;4990421;28;20413;-66
2023/04/13 11:17:58;;;;;;;0.52;0.45;;;;;;;;;;4989162;28;20114;-66
2023/04/13 11:20:34;;;;;;;2.25;0.60;;;;;;;;;;4989925;28;20026;-67
2023/04/13 11:23:02;;;;;;;0.82;0.30;;;;;;;;;;4988964;28;20114;-66
2023/04/13 11:25:29;;;;;;;0.52;0.30;;;;;;;;;;4990317;28;20502;-66
2023/04/13 11:27:59;;;;;;;1.35;0.50;;;;;;;;;;4990358;28;20030;-66
2023/04/13 11:30:25;;;;;;;1.50;0.35;;;;;;;;;;4990109;28;20101;-66
2023/04/13 11:32:52;;;;;;;1.55;0.50;;;;;;;;;;4990353;28;20169;-66
2023/04/13 11:35:18;;;;;;;0.60;0.40;;;;;;;;;;4990571;28;20117;-66
2023/04/13 11:37:49;;;;;;;0.98;0.40;;;;;;;;;;4990042;28;20682;-66
2023/04/13 11:40:20;;;;;;;1.05;0.50;;;;;;;;;;4990074;28;20117;-67
2023/04/13 11:43:06;;;;;;;1.23;0.40;;;;;;;;;;4989993;28;20026;-66
2023/04/13 11:45:31;;;;;;;1.25;0.40;;;;;;;;;;4989605;28;20057;-67
2023/04/13 11:47:57;;;;;;;1.30;0.35;;;;;;;;;;4990150;28;20030;-67
2023/04/13 11:50:24;;;;;;;1.67;0.30;;;;;;;;;;4990039;28;20109;-67
2023/04/13 11:52:55;;;;;;;1.65;0.52;;;;;;;;;;4989754;28;20022;-67
2023/04/13 11:55:21;;;;;;;2.15;0.50;;;;;;;;;;4990079;28;20039;-67
2023/04/13 11:57:48;;;;;;;1.08;0.40;;;;;;;;;;4989878;28;20585;-66
2023/04/13 12:00:22;;;;;;;1.50;0.38;;;;;;;;;;4989931;28;20034;-66
2023/04/13 12:02:50;;;;;;;1.10;0.30;;;;;;;;;;4991392;28;20022;-66
2023/04/13 12:05:33;;;;;;;1.20;0.40;;;;;;;;;;4993871;28;20033;-66
2023/04/13 12:08:01;;;;;;;0.73;0.38;;;;;;;;;;4993665;28;20085;-67
2023/04/13 12:10:28;;;;;;;1.40;0.40;;;;;;;;;;4993560;28;20085;-67
2023/04/13 12:12:59;;;;;;;1.65;0.35;;;;;;;;;;4993754;28;20030;-69
2023/04/13 12:15:27;;;;;;;1.83;0.20;;;;;;;;;;4993985;28;20490;-67
2023/04/13 12:17:57;;;;;;;1.77;0.40;;;;;;;;;;4993506;28;20034;-67
2023/04/13 12:20:24;;;;;;;1.52;0.50;;;;;;;;;;4993337;28;20038;-66
2023/04/13 12:22:50;;;;;;;8.40;1.30;;;;;;;;;;5008332;28;20038;-67
2023/04/13 12:25:20;;;;;;;3.83;0.52;;;;;;;;;;4993962;28;20043;-66
2023/04/13 12:27:50;;;;;;;3.33;0.35;;;;;;;;;;4993381;28;20030;-66
2023/04/13 12:30:16;;;;;;;2.92;0.43;;;;;;;;;;4993461;28;20069;-66
2023/04/13 12:32:43;;;;;;;1.85;0.60;;;;;;;;;;4992996;28;20061;-66
2023/04/13 12:35:09;;;;;;;3.25;0.50;;;;;;;;;;4993194;28;20019;-66
2023/04/13 12:37:43;;;;;;;3.85;0.68;;;;;;;;;;4992632;28;20034;-66
2023/04/13 12:40:11;;;;;;;2.35;0.50;;;;;;;;;;4992964;28;20023;-67
2023/04/13 12:42:41;;;;;;;0.98;0.32;;;;;;;;;;4993120;28;20104;-66
2023/04/13 12:45:07;;;;;;;1.73;0.32;;;;;;;;;;4991693;28;20502;-66
2023/04/13 12:47:33;;;;;;;2.15;0.50;;;;;;;;;;4992821;28;20034;-67
2023/04/13 12:49:58;;;;;;;1.75;0.35;;;;;;;;;;4992782;28;20090;-67
2023/04/13 12:52:27;;;;;;;2.25;0.47;;;;;;;;;;4992703;28;20113;-67
2023/04/13 12:54:53;;;;;;;2.05;0.20;;;;;;;;;;4993156;28;20025;-67
2023/04/13 12:57:18;;;;;;;3.08;0.68;;;;;;;;;;4991365;28;20022;-67
2023/04/13 12:59:43;;;;;;;2.10;0.90;;;;;;;;;;4992565;28;20178;-67
2023/04/13 13:02:09;;;;;;;2.72;0.77;;;;;;;;;;4992682;28;20103;-66
2023/04/13 13:04:34;;;;;;;2.28;0.73;;;;;;;;;;4992776;28;20462;-66
2023/04/13 13:07:00;;;;;;;1.98;0.68;;;;;;;;;;4991190;28;20441;-67
2023/04/13 13:09:26;;;;;;;2.03;0.55;;;;;;;;;;4992330;28;20026;-66
2023/04/13 13:11:51;;;;;;;2.42;0.50;;;;;;;;;;4992717;28;20604;-66
2023/04/13 13:14:19;;;;;;;2.20;0.68;;;;;;;;;;4992052;28;20030;-66
2023/04/13 13:16:44;;;;;;;2.60;0.70;;;;;;;;;;4992437;28;20523;-66
2023/04/13 13:19:10;;;;;;;2.25;0.70;;;;;;;;;;4992158;28;20034;-66
2023/04/13 13:21:35;;;;;;;4.68;0.80;;;;;;;;;;4992110;28;20077;-67
2023/04/13 13:24:00;;;;;;;5.07;0.70;;;;;;;;;;4992250;28;20062;-65
2023/04/13 13:26:26;;;;;;;3.33;1.02;;;;;;;;;;4992381;28;20023;-66
2023/04/13 13:28:52;;;;;;;7.22;1.10;;;;;;;;;;4992054;28;20110;-67
2023/04/13 13:31:18;;;;;;;7.20;0.70;;;;;;;;;;4992156;28;20394;-67
2023/04/13 13:33:43;;;;;;;2.28;0.40;;;;;;;;;;4991990;28;20027;-67
2023/04/13 13:36:09;;;;;;;2.40;0.40;;;;;;;;;;4992106;28;20598;-67
2023/04/13 13:38:35;;;;;;;1.15;0.43;;;;;;;;;;4990745;28;20494;-68
2023/04/13 13:41:00;;;;;;;1.83;0.47;;;;;;;;;;4991885;28;20026;-66
2023/04/13 13:43:26;;;;;;;3.40;0.60;;;;;;;;;;4990547;28;20058;-67
2023/04/13 13:45:51;;;;;;;1.05;0.38;;;;;;;;;;4991899;28;20561;-67
2023/04/13 13:48:17;;;;;;;2.15;0.60;;;;;;;;;;4992037;28;20050;-67
2023/04/13 13:50:42;;;;;;;2.78;0.50;;;;;;;;;;4991872;28;20466;-66
2023/04/13 13:53:07;;;;;;;1.90;0.40;;;;;;;;;;4990240;28;20600;-67
2023/04/13 13:55:33;;;;;;;2.20;0.63;;;;;;;;;;4991857;28;20027;-68
2023/04/13 13:57:59;;;;;;;2.03;0.65;;;;;;;;;;4991619;28;20026;-68
2023/04/13 14:00:25;;;;;;;2.17;0.50;;;;;;;;;;4991536;28;20038;-67
2023/04/13 14:02:51;;;;;;;2.33;0.60;;;;;;;;;;4990041;28;20026;-68
2023/04/13 14:05:16;;;;;;;2.03;0.57;;;;;;;;;;4991707;28;20027;-66
2023/04/13 14:07:43;;;;;;;1.60;0.50;;;;;;;;;;4991274;28;20023;-66
2023/04/13 14:10:10;;;;;;;1.55;0.50;;;;;;;;;;4991403;28;20571;-67
2023/04/13 14:12:40;;;;;;;0.95;0.47;;;;;;;;;;4991402;28;20633;-66
2023/04/13 14:15:11;;;;;;;1.02;0.65;;;;;;;;;;5006508;28;20034;-66
2023/04/13 14:17:36;;;;;;;1.20;0.50;;;;;;;;;;4991200;28;20031;-67
2023/04/13 14:20:11;;;;;;;2.05;0.50;;;;;;;;;;4989592;28;20030;-66
2023/04/13 14:22:38;;;;;;;2.50;0.70;;;;;;;;;;4990951;28;20057;-66
2023/04/13 14:25:04;;;;;;;1.38;0.30;;;;;;;;;;4991294;28;20031;-66
2023/04/13 14:27:31;;;;;;;2.72;0.38;;;;;;;;;;4990129;28;20638;-67
2023/04/13 14:29:56;;;;;;;1.25;0.40;;;;;;;;;;4990905;28;20027;-67
2023/04/13 14:32:22;;;;;;;1.05;0.30;;;;;;;;;;4989673;28;20125;-67
2023/04/13 14:34:47;;;;;;;0.50;0.25;;;;;;;;;;4991000;28;20486;-67
2023/04/13 14:37:14;;;;;;;1.67;0.30;;;;;;;;;;4990887;28;20144;-67
2023/04/13 14:39:40;;;;;;;0.40;0.28;;;;;;;;;;4990589;28;20030;-66
2023/04/13 14:42:06;;;;;;;0.45;0.20;;;;;;;;;;4990996;28;20037;-67
2023/04/13 14:44:35;;;;;;;2.03;0.55;;;;;;;;;;4990535;28;20410;-68